createdAt,value
2022-08-26T00:01:44.254Z,14.32
2022-08-26T00:04:12.662Z,14.23
2022-08-26T00:06:42.710Z,14.18
2022-08-26T00:09:16.364Z,14.08
2022-08-26T00:11:45.475Z,14.13
2022-08-26T00:14:14.039Z,14.09
2022-08-26T00:16:47.466Z,14.06
2022-08-26T00:19:18.324Z,14.04
2022-08-26T00:21:48.659Z,13.98
2022-08-26T00:24:18.220Z,13.98
2022-08-26T00:26:44.993Z,13.97
2022-08-26T00:29:12.472Z,13.97
2022-08-26T00:31:39.937Z,13.94
2022-08-26T00:34:07.363Z,13.92
2022-08-26T00:36:37.002Z,13.91
2022-08-26T00:39:07.106Z,13.91
2022-08-26T00:41:35.166Z,13.90
2022-08-26T00:44:02.032Z,13.88
2022-08-26T00:46:31.740Z,13.86
2022-08-26T00:49:11.976Z,13.86
2022-08-26T00:51:52.624Z,13.85
2022-08-26T00:54:23.283Z,13.86
2022-08-26T00:56:57.942Z,13.85
2022-08-26T00:59:27.596Z,13.82
2022-08-26T01:01:54.436Z,13.79
2022-08-26T01:04:23.277Z,13.76
2022-08-26T01:06:53.086Z,13.75
2022-08-26T01:09:21.887Z,13.74
2022-08-26T01:11:51.612Z,13.71
2022-08-26T01:14:20.282Z,13.69
2022-08-26T01:16:48.572Z,13.70
2022-08-26T01:19:44.719Z,13.64
2022-08-26T01:22:26.590Z,13.62
2022-08-26T01:24:55.881Z,13.58
2022-08-26T01:27:24.490Z,13.55
2022-08-26T01:29:51.883Z,13.51
2022-08-26T01:32:23.342Z,13.48
2022-08-26T01:34:50.664Z,13.44
2022-08-26T01:37:29.289Z,13.40
2022-08-26T01:39:57.318Z,13.40
2022-08-26T01:42:27.433Z,13.38
2022-08-26T01:45:09.931Z,13.34
2022-08-26T01:47:38.224Z,13.23
2022-08-26T01:50:13.251Z,13.09
2022-08-26T01:52:49.984Z,12.97
2022-08-26T01:55:27.646Z,12.84
2022-08-26T01:58:00.680Z,12.71
2022-08-26T02:00:27.804Z,12.56
2022-08-26T02:03:17.267Z,12.47
2022-08-26T02:05:55.539Z,12.36
2022-08-26T02:08:31.205Z,12.35
2022-08-26T02:10:59.955Z,12.27
2022-08-26T02:13:30.198Z,12.20
2022-08-26T02:15:58.763Z,12.08
2022-08-26T02:18:26.814Z,12.00
2022-08-26T02:20:55.485Z,11.91
2022-08-26T02:23:24.021Z,11.83
2022-08-26T02:26:04.993Z,11.81
2022-08-26T02:28:39.434Z,11.74
2022-08-26T02:31:07.961Z,11.67
2022-08-26T02:33:35.010Z,11.57
2022-08-26T02:36:02.724Z,11.49
2022-08-26T02:38:30.276Z,11.45
2022-08-26T02:40:57.414Z,11.36
2022-08-26T02:43:32.725Z,11.39
2022-08-26T02:46:02.144Z,11.34
2022-08-26T02:48:29.892Z,11.41
2022-08-26T02:50:59.222Z,11.32
2022-08-26T02:53:26.046Z,11.28
2022-08-26T02:55:53.164Z,11.23
2022-08-26T02:58:20.754Z,11.15
2022-08-26T03:00:53.414Z,11.09
2022-08-26T03:03:22.485Z,11.05
2022-08-26T03:05:50.234Z,10.95
2022-08-26T03:08:17.181Z,10.86
2022-08-26T03:10:44.346Z,10.81
2022-08-26T03:13:11.082Z,10.71
2022-08-26T03:15:37.882Z,10.69
2022-08-26T03:18:05.413Z,10.61
2022-08-26T03:20:34.329Z,10.64
2022-08-26T03:23:01.497Z,10.58
2022-08-26T03:25:28.720Z,10.52
2022-08-26T03:27:55.498Z,10.46
2022-08-26T03:30:45.214Z,10.40
2022-08-26T03:33:13.275Z,10.32
2022-08-26T03:35:42.984Z,10.27
2022-08-26T03:38:10.440Z,10.22
2022-08-26T03:40:38.889Z,10.24
2022-08-26T03:43:09.739Z,10.26
2022-08-26T03:45:37.543Z,10.26
2022-08-26T03:48:05.639Z,10.33
2022-08-26T03:50:34.308Z,10.29
2022-08-26T03:53:03.850Z,10.23
2022-08-26T03:55:32.602Z,10.15
2022-08-26T03:58:01.026Z,10.07
2022-08-26T04:00:27.860Z,10.01
2022-08-26T04:02:54.897Z,9.91
2022-08-26T04:05:23.282Z,9.85
2022-08-26T04:07:50.528Z,9.81
2022-08-26T04:10:20.409Z,9.72
2022-08-26T04:12:47.535Z,9.64
2022-08-26T04:15:15.978Z,9.57
2022-08-26T04:17:44.658Z,9.45
2022-08-26T04:20:18.164Z,9.38
2022-08-26T04:22:46.299Z,9.29
2022-08-26T04:25:13.695Z,9.19
2022-08-26T04:27:40.771Z,9.15
2022-08-26T04:30:09.089Z,9.01
2022-08-26T04:32:36.708Z,8.98
2022-08-26T04:35:04.612Z,8.90
2022-08-26T04:37:31.771Z,8.82
2022-08-26T04:39:59.793Z,8.68
2022-08-26T04:42:27.129Z,8.64
2022-08-26T04:44:53.857Z,8.57
2022-08-26T04:47:20.633Z,8.50
2022-08-26T04:49:47.834Z,8.43
2022-08-26T04:52:14.693Z,8.37
2022-08-26T04:54:43.012Z,8.33
2022-08-26T04:57:10.606Z,8.32
2022-08-26T04:59:39.458Z,8.28
2022-08-26T05:02:07.095Z,8.21
2022-08-26T05:04:34.600Z,8.15
2022-08-26T05:07:03.020Z,8.16
2022-08-26T05:09:30.514Z,8.22
2022-08-26T05:11:57.661Z,8.22
2022-08-26T05:14:24.405Z,8.20
2022-08-26T05:16:51.470Z,8.14
2022-08-26T05:19:19.477Z,8.07
2022-08-26T05:21:48.519Z,7.99
2022-08-26T05:24:17.098Z,7.92
2022-08-26T05:26:44.973Z,7.84
2022-08-26T05:29:12.178Z,7.79
2022-08-26T05:31:38.993Z,7.77
2022-08-26T05:34:06.136Z,7.79
2022-08-26T05:36:36.139Z,7.71
2022-08-26T05:39:06.316Z,7.83
2022-08-26T05:41:36.516Z,7.82
2022-08-26T05:44:08.527Z,7.76
2022-08-26T05:46:36.820Z,7.70
2022-08-26T05:49:05.760Z,7.64
2022-08-26T05:51:33.997Z,7.62
2022-08-26T05:54:03.964Z,7.62
2022-08-26T05:56:30.837Z,7.64
2022-08-26T05:58:59.627Z,7.64
2022-08-26T06:01:28.531Z,7.65
2022-08-26T06:03:59.717Z,7.64
2022-08-26T06:06:31.338Z,7.67
2022-08-26T06:08:59.560Z,7.70
2022-08-26T06:11:28.414Z,7.76
2022-08-26T06:14:02.700Z,7.83
2022-08-26T06:16:35.040Z,7.90
2022-08-26T06:19:03.041Z,8.02
2022-08-26T06:21:32.925Z,8.07
2022-08-26T06:24:27.394Z,8.25
2022-08-26T06:26:56.983Z,8.71
2022-08-26T06:29:26.016Z,9.49
2022-08-26T06:31:54.642Z,10.28
2022-08-26T06:34:23.463Z,11.14
2022-08-26T06:37:02.429Z,11.99
2022-08-26T06:39:30.731Z,12.82
2022-08-26T06:41:59.094Z,13.57
2022-08-26T06:44:27.319Z,14.31
2022-08-26T06:46:54.244Z,15.06
2022-08-26T06:49:27.187Z,15.69
2022-08-26T06:51:55.510Z,16.36
2022-08-26T06:54:22.449Z,17.00
2022-08-26T06:56:49.635Z,17.60
2022-08-26T06:59:16.615Z,18.15
2022-08-26T07:01:45.326Z,18.57
2022-08-26T07:04:15.682Z,19.04
2022-08-26T07:06:49.127Z,19.50
2022-08-26T07:09:16.974Z,19.87
2022-08-26T07:11:44.719Z,20.19
2022-08-26T07:14:12.559Z,20.24
2022-08-26T07:16:40.457Z,20.34
2022-08-26T07:19:11.001Z,20.32
2022-08-26T07:21:40.385Z,20.16
2022-08-26T07:24:08.379Z,19.96
2022-08-26T07:26:38.193Z,19.40
2022-08-26T07:29:05.088Z,19.33
2022-08-26T07:31:42.257Z,18.93
2022-08-26T07:34:10.985Z,18.92
2022-08-26T07:36:38.196Z,18.76
2022-08-26T07:39:05.955Z,18.66
2022-08-26T07:41:33.493Z,18.39
2022-08-26T07:44:00.862Z,18.82
2022-08-26T07:46:30.194Z,19.09
2022-08-26T07:48:58.092Z,19.59
2022-08-26T07:51:25.369Z,19.94
2022-08-26T07:53:53.408Z,19.88
2022-08-26T07:56:24.306Z,19.86
2022-08-26T07:58:53.106Z,20.11
2022-08-26T08:01:21.240Z,20.03
2022-08-26T08:03:51.646Z,19.84
2022-08-26T08:06:27.265Z,19.77
2022-08-26T08:08:55.589Z,19.56
2022-08-26T08:11:23.949Z,19.57
2022-08-26T08:13:56.031Z,19.27
2022-08-26T08:16:25.101Z,19.09
2022-08-26T08:18:53.568Z,18.60
2022-08-26T08:21:22.156Z,18.76
2022-08-26T08:23:53.513Z,18.82
2022-08-26T08:26:20.679Z,18.80
2022-08-26T08:28:48.200Z,18.98
2022-08-26T08:31:52.532Z,18.92
2022-08-26T08:34:13.111Z,18.86
2022-08-26T08:36:40.035Z,18.66
2022-08-26T08:39:08.623Z,18.76
2022-08-26T08:41:51.345Z,19.18
2022-08-26T08:46:59.920Z,19.93
2022-08-26T08:49:29.255Z,20.00
2022-08-26T08:52:06.995Z,19.94
2022-08-26T08:54:33.997Z,19.67
2022-08-26T08:57:17.599Z,19.65
2022-08-26T08:59:55.304Z,19.30
2022-08-26T09:02:47.882Z,19.72
2022-08-26T09:05:21.906Z,19.92
2022-08-26T09:08:28.502Z,20.16
2022-08-26T09:11:03.686Z,20.23
2022-08-26T09:13:31.829Z,20.25
2022-08-26T09:16:41.196Z,20.03
2022-08-26T09:19:44.124Z,20.22
2022-08-26T09:22:10.975Z,20.50
2022-08-26T09:24:42.025Z,19.77
2022-08-26T09:27:51.828Z,19.51
2022-08-26T09:30:33.215Z,19.88
2022-08-26T09:33:06.648Z,20.10
2022-08-26T09:35:45.697Z,20.01
2022-08-26T09:38:28.192Z,20.41
2022-08-26T09:41:07.165Z,20.38
2022-08-26T09:43:35.643Z,20.42
2022-08-26T09:46:18.742Z,19.94
2022-08-26T09:48:45.557Z,19.77
2022-08-26T09:51:24.164Z,19.70
2022-08-26T09:53:54.553Z,19.66
2022-08-26T09:56:30.092Z,20.10
2022-08-26T09:58:57.885Z,20.62
2022-08-26T10:01:38.096Z,20.36
2022-08-26T10:04:15.252Z,19.35
2022-08-26T10:06:54.649Z,19.25
2022-08-26T10:09:23.549Z,19.32
2022-08-26T10:11:57.215Z,19.91
2022-08-26T10:14:25.064Z,19.99
2022-08-26T10:17:09.320Z,19.96
2022-08-26T10:19:56.220Z,20.39
2022-08-26T10:22:43.480Z,20.49
2022-08-26T10:25:16.144Z,20.90
2022-08-26T10:28:00.630Z,20.23
2022-08-26T10:30:34.629Z,20.63
2022-08-26T10:33:08.764Z,20.91
2022-08-26T10:35:41.333Z,21.07
2022-08-26T10:38:14.634Z,20.91
2022-08-26T10:41:09.724Z,20.44
2022-08-26T10:43:42.967Z,20.39
2022-08-26T10:46:16.481Z,20.56
2022-08-26T10:49:08.306Z,20.51
2022-08-26T10:51:42.316Z,20.10
2022-08-26T10:54:47.809Z,20.26
2022-08-26T10:57:29.171Z,20.12
2022-08-26T11:00:29.617Z,20.44
2022-08-26T11:03:22.076Z,20.71
2022-08-26T11:06:18.537Z,20.22
2022-08-26T11:08:54.070Z,20.12
2022-08-26T11:11:39.589Z,20.64
2022-08-26T11:14:28.460Z,21.10
2022-08-26T11:16:57.735Z,21.37
2022-08-26T11:19:56.830Z,21.49
2022-08-26T11:22:31.754Z,21.68
2022-08-26T11:24:59.066Z,21.57
2022-08-26T11:27:26.126Z,21.06
2022-08-26T11:30:29.283Z,20.74
2022-08-26T11:32:58.904Z,20.73
2022-08-26T11:35:26.436Z,21.13
2022-08-26T11:38:01.444Z,21.75
2022-08-26T11:40:35.494Z,22.30
2022-08-26T11:43:13.285Z,22.37
2022-08-26T11:45:46.816Z,21.34
2022-08-26T11:48:22.135Z,21.01
2022-08-26T11:51:07.246Z,21.29
2022-08-26T11:53:41.176Z,21.43
2022-08-26T11:56:16.926Z,21.48
2022-08-26T11:58:47.017Z,21.91
2022-08-26T12:01:28.926Z,21.76
2022-08-26T12:04:00.089Z,21.68
2022-08-26T12:06:34.037Z,21.50
2022-08-26T12:09:05.617Z,21.42
2022-08-26T12:11:34.058Z,21.09
2022-08-26T12:14:28.742Z,21.54
2022-08-26T12:16:55.599Z,21.83
2022-08-26T12:19:32.942Z,22.06
2022-08-26T12:22:20.937Z,22.29
2022-08-26T12:24:52.531Z,22.30
2022-08-26T12:27:23.047Z,22.67
2022-08-26T12:30:12.261Z,22.00
2022-08-26T12:32:50.978Z,21.42
2022-08-26T12:35:26.063Z,21.11
2022-08-26T12:37:55.372Z,21.35
2022-08-26T12:40:27.966Z,21.14
2022-08-26T12:42:56.595Z,21.54
2022-08-26T12:45:52.900Z,21.89
2022-08-26T12:48:29.241Z,22.19
2022-08-26T12:50:57.342Z,21.94
2022-08-26T12:53:25.699Z,21.94
2022-08-26T12:55:55.423Z,21.59
2022-08-26T12:58:30.136Z,20.97
2022-08-26T13:01:08.882Z,20.92
2022-08-26T13:03:39.007Z,21.35
2022-08-26T13:06:29.766Z,21.46
2022-08-26T13:09:25.550Z,21.49
2022-08-26T13:11:55.130Z,21.39
2022-08-26T13:14:24.840Z,21.14
2022-08-26T13:16:53.145Z,21.37
2022-08-26T13:19:24.397Z,21.39
2022-08-26T13:21:57.674Z,21.60
2022-08-26T13:24:38.571Z,22.00
2022-08-26T13:27:06.993Z,22.50
2022-08-26T13:29:33.911Z,23.21
2022-08-26T13:32:01.105Z,23.84
2022-08-26T13:34:27.985Z,24.18
2022-08-26T13:36:56.495Z,24.46
2022-08-26T13:39:24.263Z,24.06
2022-08-26T13:41:51.583Z,24.24
2022-08-26T13:44:18.657Z,24.81
2022-08-26T13:49:17.361Z,25.55
2022-08-26T13:51:44.141Z,24.68
2022-08-26T13:54:10.922Z,24.01
2022-08-26T13:56:38.000Z,22.97
2022-08-26T13:59:06.565Z,22.88
2022-08-26T14:01:34.780Z,22.35
2022-08-26T14:04:02.845Z,21.96
2022-08-26T14:06:30.092Z,21.13
2022-08-26T14:08:57.204Z,21.05
2022-08-26T14:11:25.174Z,21.55
2022-08-26T14:13:52.500Z,21.94
2022-08-26T14:16:33.568Z,21.89
2022-08-26T14:19:02.193Z,21.44
2022-08-26T14:21:35.300Z,21.04
2022-08-26T14:24:02.617Z,21.06
2022-08-26T14:26:30.143Z,21.15
2022-08-26T14:29:02.680Z,21.16
2022-08-26T14:31:31.931Z,21.07
2022-08-26T14:34:02.775Z,20.67
2022-08-26T14:36:31.491Z,20.90
2022-08-26T14:39:10.104Z,21.32
2022-08-26T14:41:42.961Z,21.73
2022-08-26T14:44:13.845Z,21.55
2022-08-26T14:46:52.593Z,21.37
2022-08-26T14:49:20.128Z,21.93
2022-08-26T14:51:46.917Z,22.08
2022-08-26T14:54:14.815Z,22.46
2022-08-26T14:56:51.813Z,22.86
2022-08-26T14:59:25.595Z,22.77
2022-08-26T15:01:53.607Z,22.46
2022-08-26T15:04:21.258Z,22.25
2022-08-26T15:06:48.152Z,22.24
2022-08-26T15:09:15.864Z,22.50
2022-08-26T15:11:42.991Z,22.75
2022-08-26T15:14:14.694Z,23.18
2022-08-26T15:16:49.919Z,23.72
2022-08-26T15:19:17.683Z,23.88
2022-08-26T15:21:45.764Z,24.34
